Lewis Station, Missouri
Current Conditions -  °F | °C
As of 2:55 PM on Sunday 21 Dec 2014 (Local Time) from KGLY Reporting Station
Haze Haze  
Wind Chill: 40°   Ceiling: 1900
Heat Index: 45°   Visibility: 5mi
Dew Point: 43°   Wind: 9mph
Humidity: 93%   Direction: 160°SSE
Pressure: 29.91"   Gusts: NA
Location:  38.5092°N, 93.6699°W
Report Text: KGLY 212055Z AUTO 16008KT 5SM BR FEW012 OVC019 07/06 A2991 RMK AO2
Loading
Personal Weather Stations






























Interactive Weather Map New forecast layout! Learn more

10-Day Weather Forecast

Advertisements
Track Severe Weather on mobile